sensor_id;sensor_type;location;lat;lon;timestamp;temperature;humidity
42037;DHT22;30340;52.004;5.908;2023-01-13T00:00:23;11.10;94.30
42037;DHT22;30340;52.004;5.908;2023-01-13T00:02:50;11.00;94.10
42037;DHT22;30340;52.004;5.908;2023-01-13T00:05:16;11.00;93.90
42037;DHT22;30340;52.004;5.908;2023-01-13T00:07:41;11.00;94.10
42037;DHT22;30340;52.004;5.908;2023-01-13T00:10:09;11.00;93.50
42037;DHT22;30340;52.004;5.908;2023-01-13T00:12:39;11.00;93.30
42037;DHT22;30340;52.004;5.908;2023-01-13T00:15:06;10.90;93.20
42037;DHT22;30340;52.004;5.908;2023-01-13T00:17:32;10.90;92.80
42037;DHT22;30340;52.004;5.908;2023-01-13T00:19:57;10.80;92.60
42037;DHT22;30340;52.004;5.908;2023-01-13T00:22:23;10.70;92.50
42037;DHT22;30340;52.004;5.908;2023-01-13T00:24:48;10.70;92.70
42037;DHT22;30340;52.004;5.908;2023-01-13T00:27:14;10.70;92.60
42037;DHT22;30340;52.004;5.908;2023-01-13T00:29:39;10.60;92.50
42037;DHT22;30340;52.004;5.908;2023-01-13T00:32:05;10.50;92.60
42037;DHT22;30340;52.004;5.908;2023-01-13T00:34:30;10.50;92.70
42037;DHT22;30340;52.004;5.908;2023-01-13T00:36:56;10.50;92.70
42037;DHT22;30340;52.004;5.908;2023-01-13T00:39:22;10.40;92.50
42037;DHT22;30340;52.004;5.908;2023-01-13T00:41:47;10.40;92.50
42037;DHT22;30340;52.004;5.908;2023-01-13T00:44:31;10.30;92.60
42037;DHT22;30340;52.004;5.908;2023-01-13T00:46:57;10.30;92.70
42037;DHT22;30340;52.004;5.908;2023-01-13T00:49:26;10.20;92.50
42037;DHT22;30340;52.004;5.908;2023-01-13T00:51:54;10.20;92.50
42037;DHT22;30340;52.004;5.908;2023-01-13T00:54:19;10.20;92.50
42037;DHT22;30340;52.004;5.908;2023-01-13T00:56:45;10.20;92.70
42037;DHT22;30340;52.004;5.908;2023-01-13T00:59:11;10.10;92.60
42037;DHT22;30340;52.004;5.908;2023-01-13T01:01:38;10.10;92.70
42037;DHT22;30340;52.004;5.908;2023-01-13T01:04:03;10.10;92.80
42037;DHT22;30340;52.004;5.908;2023-01-13T01:06:29;10.10;92.90
42037;DHT22;30340;52.004;5.908;2023-01-13T01:08:55;10.10;92.90
42037;DHT22;30340;52.004;5.908;2023-01-13T01:11:26;10.00;93.00
42037;DHT22;30340;52.004;5.908;2023-01-13T01:13:54;10.00;93.10
42037;DHT22;30340;52.004;5.908;2023-01-13T01:16:22;10.00;93.20
42037;DHT22;30340;52.004;5.908;2023-01-13T01:18:49;10.00;93.20
42037;DHT22;30340;52.004;5.908;2023-01-13T01:21:15;10.00;93.20
42037;DHT22;30340;52.004;5.908;2023-01-13T01:23:42;10.00;93.00
42037;DHT22;30340;52.004;5.908;2023-01-13T01:26:12;10.00;93.00
42037;DHT22;30340;52.004;5.908;2023-01-13T01:28:38;10.00;92.90
42037;DHT22;30340;52.004;5.908;2023-01-13T01:31:13;10.00;92.90
42037;DHT22;30340;52.004;5.908;2023-01-13T01:33:39;10.00;92.90
42037;DHT22;30340;52.004;5.908;2023-01-13T01:36:06;10.00;92.90
42037;DHT22;30340;52.004;5.908;2023-01-13T01:38:31;10.00;92.70
42037;DHT22;30340;52.004;5.908;2023-01-13T01:40:57;10.00;92.70
42037;DHT22;30340;52.004;5.908;2023-01-13T01:43:53;10.00;92.60
42037;DHT22;30340;52.004;5.908;2023-01-13T01:49:22;10.00;92.70
42037;DHT22;30340;52.004;5.908;2023-01-13T01:51:56;9.90;92.60
42037;DHT22;30340;52.004;5.908;2023-01-13T01:54:48;9.90;92.60
42037;DHT22;30340;52.004;5.908;2023-01-13T01:57:20;9.90;92.50
42037;DHT22;30340;52.004;5.908;2023-01-13T01:59:48;9.80;92.60
42037;DHT22;30340;52.004;5.908;2023-01-13T02:02:13;9.80;92.50
42037;DHT22;30340;52.004;5.908;2023-01-13T02:04:43;9.70;92.50
42037;DHT22;30340;52.004;5.908;2023-01-13T02:07:19;9.60;92.30
42037;DHT22;30340;52.004;5.908;2023-01-13T02:09:47;9.60;92.40
42037;DHT22;30340;52.004;5.908;2023-01-13T02:12:14;9.60;92.50
42037;DHT22;30340;52.004;5.908;2023-01-13T02:15:13;9.60;92.50
42037;DHT22;30340;52.004;5.908;2023-01-13T02:17:55;9.60;92.50
42037;DHT22;30340;52.004;5.908;2023-01-13T02:23:08;9.50;92.50
42037;DHT22;30340;52.004;5.908;2023-01-13T02:35:29;9.50;92.60
42037;DHT22;30340;52.004;5.908;2023-01-13T02:37:59;9.40;92.60
42037;DHT22;30340;52.004;5.908;2023-01-13T02:43:31;9.40;92.60
42037;DHT22;30340;52.004;5.908;2023-01-13T02:46:30;9.40;92.60
42037;DHT22;30340;52.004;5.908;2023-01-13T02:49:02;9.40;92.60
42037;DHT22;30340;52.004;5.908;2023-01-13T02:51:29;9.40;92.70
42037;DHT22;30340;52.004;5.908;2023-01-13T02:54:10;9.30;92.60
42037;DHT22;30340;52.004;5.908;2023-01-13T02:56:40;9.40;92.80
42037;DHT22;30340;52.004;5.908;2023-01-13T02:59:07;9.40;92.70
42037;DHT22;30340;52.004;5.908;2023-01-13T03:01:33;9.40;92.70
42037;DHT22;30340;52.004;5.908;2023-01-13T03:04:09;9.40;92.60
42037;DHT22;30340;52.004;5.908;2023-01-13T03:07:00;9.40;92.40
42037;DHT22;30340;52.004;5.908;2023-01-13T03:09:42;9.40;92.20
42037;DHT22;30340;52.004;5.908;2023-01-13T03:12:14;9.40;91.90
42037;DHT22;30340;52.004;5.908;2023-01-13T03:14:54;9.40;92.00
42037;DHT22;30340;52.004;5.908;2023-01-13T03:20:15;9.40;91.80
42037;DHT22;30340;52.004;5.908;2023-01-13T03:23:07;9.40;91.80
42037;DHT22;30340;52.004;5.908;2023-01-13T03:25:39;9.50;91.70
42037;DHT22;30340;52.004;5.908;2023-01-13T03:28:16;9.50;91.60
42037;DHT22;30340;52.004;5.908;2023-01-13T03:30:53;9.50;91.60
42037;DHT22;30340;52.004;5.908;2023-01-13T03:33:30;9.50;91.40
42037;DHT22;30340;52.004;5.908;2023-01-13T03:36:07;9.50;91.50
42037;DHT22;30340;52.004;5.908;2023-01-13T03:38:41;9.50;91.20
42037;DHT22;30340;52.004;5.908;2023-01-13T03:49:22;9.50;91.00
42037;DHT22;30340;52.004;5.908;2023-01-13T03:51:54;9.50;91.00
42037;DHT22;30340;52.004;5.908;2023-01-13T03:54:21;9.50;90.90
42037;DHT22;30340;52.004;5.908;2023-01-13T03:56:55;9.60;91.00
42037;DHT22;30340;52.004;5.908;2023-01-13T03:59:24;9.60;91.00
42037;DHT22;30340;52.004;5.908;2023-01-13T04:02:04;9.60;91.00
42037;DHT22;30340;52.004;5.908;2023-01-13T04:04:42;9.60;91.00
42037;DHT22;30340;52.004;5.908;2023-01-13T04:09:52;9.60;91.00
42037;DHT22;30340;52.004;5.908;2023-01-13T04:12:25;9.60;91.00
42037;DHT22;30340;52.004;5.908;2023-01-13T04:14:52;9.60;91.10
42037;DHT22;30340;52.004;5.908;2023-01-13T04:17:19;9.60;91.00
42037;DHT22;30340;52.004;5.908;2023-01-13T04:19:45;9.50;90.80
42037;DHT22;30340;52.004;5.908;2023-01-13T04:22:11;9.50;91.00
42037;DHT22;30340;52.004;5.908;2023-01-13T04:24:36;9.50;91.00
42037;DHT22;30340;52.004;5.908;2023-01-13T04:27:02;9.50;91.10
42037;DHT22;30340;52.004;5.908;2023-01-13T04:29:28;9.40;91.10
42037;DHT22;30340;52.004;5.908;2023-01-13T04:31:54;9.40;91.20
42037;DHT22;30340;52.004;5.908;2023-01-13T04:34:19;9.40;91.10
42037;DHT22;30340;52.004;5.908;2023-01-13T04:36:45;9.30;91.20
42037;DHT22;30340;52.004;5.908;2023-01-13T04:39:11;9.30;91.20
42037;DHT22;30340;52.004;5.908;2023-01-13T04:41:36;9.20;91.10
42037;DHT22;30340;52.004;5.908;2023-01-13T04:44:20;9.20;91.00
42037;DHT22;30340;52.004;5.908;2023-01-13T04:46:46;9.20;91.10
42037;DHT22;30340;52.004;5.908;2023-01-13T04:49:12;9.20;91.00
42037;DHT22;30340;52.004;5.908;2023-01-13T04:51:37;9.20;91.00
42037;DHT22;30340;52.004;5.908;2023-01-13T04:54:03;9.10;90.80
42037;DHT22;30340;52.004;5.908;2023-01-13T04:56:28;9.10;90.70
42037;DHT22;30340;52.004;5.908;2023-01-13T04:58:54;9.10;90.70
42037;DHT22;30340;52.004;5.908;2023-01-13T05:01:20;9.10;90.60
42037;DHT22;30340;52.004;5.908;2023-01-13T05:03:45;9.10;90.50
42037;DHT22;30340;52.004;5.908;2023-01-13T05:06:11;9.10;90.50
42037;DHT22;30340;52.004;5.908;2023-01-13T05:08:37;9.10;90.50
42037;DHT22;30340;52.004;5.908;2023-01-13T05:11:02;9.10;89.80
42037;DHT22;30340;52.004;5.908;2023-01-13T05:13:48;9.00;89.90
42037;DHT22;30340;52.004;5.908;2023-01-13T05:16:32;9.00;89.80
42037;DHT22;30340;52.004;5.908;2023-01-13T05:19:16;9.00;89.00
42037;DHT22;30340;52.004;5.908;2023-01-13T05:21:42;9.00;89.20
42037;DHT22;30340;52.004;5.908;2023-01-13T05:24:26;9.10;89.10
42037;DHT22;30340;52.004;5.908;2023-01-13T05:27:10;9.10;88.80
42037;DHT22;30340;52.004;5.908;2023-01-13T05:29:36;9.10;88.80
42037;DHT22;30340;52.004;5.908;2023-01-13T05:32:01;9.10;88.90
42037;DHT22;30340;52.004;5.908;2023-01-13T05:34:30;9.20;89.20
42037;DHT22;30340;52.004;5.908;2023-01-13T05:36:56;9.20;89.00
42037;DHT22;30340;52.004;5.908;2023-01-13T05:39:21;9.20;89.20
42037;DHT22;30340;52.004;5.908;2023-01-13T05:41:47;9.20;89.20
42037;DHT22;30340;52.004;5.908;2023-01-13T05:44:31;9.20;88.90
42037;DHT22;30340;52.004;5.908;2023-01-13T05:46:56;9.20;88.90
42037;DHT22;30340;52.004;5.908;2023-01-13T05:49:22;9.20;89.30
42037;DHT22;30340;52.004;5.908;2023-01-13T05:51:48;9.20;89.50
42037;DHT22;30340;52.004;5.908;2023-01-13T05:54:13;9.20;89.70
42037;DHT22;30340;52.004;5.908;2023-01-13T05:56:39;9.20;89.60
42037;DHT22;30340;52.004;5.908;2023-01-13T05:59:04;9.20;89.80
42037;DHT22;30340;52.004;5.908;2023-01-13T06:01:31;9.20;89.90
42037;DHT22;30340;52.004;5.908;2023-01-13T06:03:57;9.20;90.00
42037;DHT22;30340;52.004;5.908;2023-01-13T06:06:22;9.20;90.10
42037;DHT22;30340;52.004;5.908;2023-01-13T06:08:48;9.20;90.20
42037;DHT22;30340;52.004;5.908;2023-01-13T06:11:13;9.10;90.20
42037;DHT22;30340;52.004;5.908;2023-01-13T06:13:39;9.10;90.30
42037;DHT22;30340;52.004;5.908;2023-01-13T06:16:05;9.10;90.40
42037;DHT22;30340;52.004;5.908;2023-01-13T06:18:30;9.10;90.50
42037;DHT22;30340;52.004;5.908;2023-01-13T06:20:56;9.10;90.50
42037;DHT22;30340;52.004;5.908;2023-01-13T06:23:22;9.00;90.50
42037;DHT22;30340;52.004;5.908;2023-01-13T06:26:19;9.00;90.50
42037;DHT22;30340;52.004;5.908;2023-01-13T06:28:46;9.00;90.50
42037;DHT22;30340;52.004;5.908;2023-01-13T06:31:11;9.00;90.50
42037;DHT22;30340;52.004;5.908;2023-01-13T06:33:46;9.00;90.30
42037;DHT22;30340;52.004;5.908;2023-01-13T06:36:20;8.90;90.30
42037;DHT22;30340;52.004;5.908;2023-01-13T06:38:49;8.90;90.30
42037;DHT22;30340;52.004;5.908;2023-01-13T06:41:17;8.90;90.20
42037;DHT22;30340;52.004;5.908;2023-01-13T06:44:03;8.80;90.30
42037;DHT22;30340;52.004;5.908;2023-01-13T06:46:29;8.80;90.40
42037;DHT22;30340;52.004;5.908;2023-01-13T06:48:54;8.80;90.40
42037;DHT22;30340;52.004;5.908;2023-01-13T06:51:20;8.80;90.30
42037;DHT22;30340;52.004;5.908;2023-01-13T06:53:45;8.80;90.40
42037;DHT22;30340;52.004;5.908;2023-01-13T06:56:11;8.90;90.30
42037;DHT22;30340;52.004;5.908;2023-01-13T06:58:36;8.90;90.10
42037;DHT22;30340;52.004;5.908;2023-01-13T07:01:02;8.90;90.10
42037;DHT22;30340;52.004;5.908;2023-01-13T07:03:27;8.90;90.10
42037;DHT22;30340;52.004;5.908;2023-01-13T07:05:54;8.90;90.20
42037;DHT22;30340;52.004;5.908;2023-01-13T07:08:21;9.00;90.20
42037;DHT22;30340;52.004;5.908;2023-01-13T07:10:47;9.00;90.00
42037;DHT22;30340;52.004;5.908;2023-01-13T07:13:13;9.00;90.00
42037;DHT22;30340;52.004;5.908;2023-01-13T07:16:00;9.00;90.10
42037;DHT22;30340;52.004;5.908;2023-01-13T07:18:27;9.00;90.00
42037;DHT22;30340;52.004;5.908;2023-01-13T07:20:54;9.00;90.10
42037;DHT22;30340;52.004;5.908;2023-01-13T07:23:20;9.00;90.10
42037;DHT22;30340;52.004;5.908;2023-01-13T07:25:45;9.00;90.20
42037;DHT22;30340;52.004;5.908;2023-01-13T07:28:11;9.00;90.10
42037;DHT22;30340;52.004;5.908;2023-01-13T07:30:37;9.00;90.00
42037;DHT22;30340;52.004;5.908;2023-01-13T07:33:02;9.00;90.00
42037;DHT22;30340;52.004;5.908;2023-01-13T07:35:28;9.00;90.00
42037;DHT22;30340;52.004;5.908;2023-01-13T07:37:54;9.00;90.00
42037;DHT22;30340;52.004;5.908;2023-01-13T07:40:19;9.00;89.50
42037;DHT22;30340;52.004;5.908;2023-01-13T07:42:45;9.00;89.30
42037;DHT22;30340;52.004;5.908;2023-01-13T07:45:29;9.00;89.60
42037;DHT22;30340;52.004;5.908;2023-01-13T07:47:54;9.00;89.80
42037;DHT22;30340;52.004;5.908;2023-01-13T07:50:20;9.00;89.70
42037;DHT22;30340;52.004;5.908;2023-01-13T07:52:48;9.00;89.30
42037;DHT22;30340;52.004;5.908;2023-01-13T07:55:13;9.00;89.70
42037;DHT22;30340;52.004;5.908;2023-01-13T07:57:39;9.00;89.60
42037;DHT22;30340;52.004;5.908;2023-01-13T08:00:05;9.00;89.00
42037;DHT22;30340;52.004;5.908;2023-01-13T08:02:31;9.00;88.70
42037;DHT22;30340;52.004;5.908;2023-01-13T08:04:57;9.00;88.00
42037;DHT22;30340;52.004;5.908;2023-01-13T08:07:22;9.00;88.10
42037;DHT22;30340;52.004;5.908;2023-01-13T08:09:48;9.10;88.20
42037;DHT22;30340;52.004;5.908;2023-01-13T08:12:13;9.10;88.20
42037;DHT22;30340;52.004;5.908;2023-01-13T08:14:58;9.10;88.20
42037;DHT22;30340;52.004;5.908;2023-01-13T08:17:23;9.10;87.80
42037;DHT22;30340;52.004;5.908;2023-01-13T08:19:49;9.10;87.80
42037;DHT22;30340;52.004;5.908;2023-01-13T08:22:14;9.10;88.30
42037;DHT22;30340;52.004;5.908;2023-01-13T08:24:40;9.20;87.90
42037;DHT22;30340;52.004;5.908;2023-01-13T08:27:06;9.20;88.10
42037;DHT22;30340;52.004;5.908;2023-01-13T08:29:31;9.20;88.00
42037;DHT22;30340;52.004;5.908;2023-01-13T08:31:57;9.20;87.60
42037;DHT22;30340;52.004;5.908;2023-01-13T08:34:22;9.20;87.90
42037;DHT22;30340;52.004;5.908;2023-01-13T08:36:48;9.20;88.00
42037;DHT22;30340;52.004;5.908;2023-01-13T08:39:14;9.20;87.10
42037;DHT22;30340;52.004;5.908;2023-01-13T08:41:40;9.20;87.40
42037;DHT22;30340;52.004;5.908;2023-01-13T08:44:19;9.20;87.70
42037;DHT22;30340;52.004;5.908;2023-01-13T08:46:45;9.20;87.20
42037;DHT22;30340;52.004;5.908;2023-01-13T08:49:10;9.20;87.40
42037;DHT22;30340;52.004;5.908;2023-01-13T08:51:36;9.20;87.20
42037;DHT22;30340;52.004;5.908;2023-01-13T08:54:02;9.20;87.50
42037;DHT22;30340;52.004;5.908;2023-01-13T08:56:30;9.20;87.00
42037;DHT22;30340;52.004;5.908;2023-01-13T08:58:59;9.20;87.10
42037;DHT22;30340;52.004;5.908;2023-01-13T09:01:25;9.20;87.20
42037;DHT22;30340;52.004;5.908;2023-01-13T09:03:51;9.20;87.30
42037;DHT22;30340;52.004;5.908;2023-01-13T09:06:17;9.20;87.20
42037;DHT22;30340;52.004;5.908;2023-01-13T09:08:42;9.30;87.30
42037;DHT22;30340;52.004;5.908;2023-01-13T09:11:19;9.20;87.00
42037;DHT22;30340;52.004;5.908;2023-01-13T09:14:03;9.30;87.30
42037;DHT22;30340;52.004;5.908;2023-01-13T09:16:29;9.30;87.40
42037;DHT22;30340;52.004;5.908;2023-01-13T09:18:54;9.30;87.30
42037;DHT22;30340;52.004;5.908;2023-01-13T09:21:20;9.30;87.50
42037;DHT22;30340;52.004;5.908;2023-01-13T09:23:46;9.30;87.80
42037;DHT22;30340;52.004;5.908;2023-01-13T09:26:15;9.30;88.10
42037;DHT22;30340;52.004;5.908;2023-01-13T09:28:41;9.30;88.40
42037;DHT22;30340;52.004;5.908;2023-01-13T09:31:07;9.20;88.60
42037;DHT22;30340;52.004;5.908;2023-01-13T09:33:32;9.20;88.80
42037;DHT22;30340;52.004;5.908;2023-01-13T09:36:16;9.20;89.00
42037;DHT22;30340;52.004;5.908;2023-01-13T09:38:42;9.20;88.90
42037;DHT22;30340;52.004;5.908;2023-01-13T09:41:19;9.20;89.00
42037;DHT22;30340;52.004;5.908;2023-01-13T09:44:06;9.30;89.10
42037;DHT22;30340;52.004;5.908;2023-01-13T09:46:47;9.20;89.00
42037;DHT22;30340;52.004;5.908;2023-01-13T09:52:23;9.20;89.30
42037;DHT22;30340;52.004;5.908;2023-01-13T09:55:08;9.20;89.50
42037;DHT22;30340;52.004;5.908;2023-01-13T09:57:36;9.20;89.50
42037;DHT22;30340;52.004;5.908;2023-01-13T10:00:14;9.20;89.80
42037;DHT22;30340;52.004;5.908;2023-01-13T10:03:45;9.20;90.00
42037;DHT22;30340;52.004;5.908;2023-01-13T10:05:43;9.10;90.00
42037;DHT22;30340;52.004;5.908;2023-01-13T10:08:25;9.10;90.20
42037;DHT22;30340;52.004;5.908;2023-01-13T10:10:54;9.00;90.40
42037;DHT22;30340;52.004;5.908;2023-01-13T10:13:24;9.00;90.50
42037;DHT22;30340;52.004;5.908;2023-01-13T10:19:04;8.90;90.90
42037;DHT22;30340;52.004;5.908;2023-01-13T10:27:04;8.90;91.20
42037;DHT22;30340;52.004;5.908;2023-01-13T10:29:32;8.90;91.30
42037;DHT22;30340;52.004;5.908;2023-01-13T10:31:59;8.90;91.40
42037;DHT22;30340;52.004;5.908;2023-01-13T10:34:26;8.90;91.40
42037;DHT22;30340;52.004;5.908;2023-01-13T10:37:04;8.90;91.50
42037;DHT22;30340;52.004;5.908;2023-01-13T10:39:41;8.90;91.60
42037;DHT22;30340;52.004;5.908;2023-01-13T10:42:15;8.90;91.60
42037;DHT22;30340;52.004;5.908;2023-01-13T10:44:51;8.90;91.60
42037;DHT22;30340;52.004;5.908;2023-01-13T10:47:28;9.00;91.70
42037;DHT22;30340;52.004;5.908;2023-01-13T10:52:41;9.00;91.60
42037;DHT22;30340;52.004;5.908;2023-01-13T10:55:39;9.00;91.60
42037;DHT22;30340;52.004;5.908;2023-01-13T10:58:19;9.00;91.60
42037;DHT22;30340;52.004;5.908;2023-01-13T11:00:46;9.00;91.60
42037;DHT22;30340;52.004;5.908;2023-01-13T11:03:22;9.10;91.60
42037;DHT22;30340;52.004;5.908;2023-01-13T11:05:54;9.10;91.60
42037;DHT22;30340;52.004;5.908;2023-01-13T11:08:22;9.10;91.50
42037;DHT22;30340;52.004;5.908;2023-01-13T11:10:52;9.10;91.50
42037;DHT22;30340;52.004;5.908;2023-01-13T11:18:42;9.10;91.70
42037;DHT22;30340;52.004;5.908;2023-01-13T11:21:36;9.10;91.80
42037;DHT22;30340;52.004;5.908;2023-01-13T11:26:49;9.10;92.00
42037;DHT22;30340;52.004;5.908;2023-01-13T11:29:33;9.00;92.00
42037;DHT22;30340;52.004;5.908;2023-01-13T11:32:11;9.00;92.10
42037;DHT22;30340;52.004;5.908;2023-01-13T11:34:39;9.10;92.30
42037;DHT22;30340;52.004;5.908;2023-01-13T11:37:13;9.20;92.30
42037;DHT22;30340;52.004;5.908;2023-01-13T11:47:54;9.30;92.30
42037;DHT22;30340;52.004;5.908;2023-01-13T11:50:46;9.30;92.20
42037;DHT22;30340;52.004;5.908;2023-01-13T12:01:41;9.30;92.10
42037;DHT22;30340;52.004;5.908;2023-01-13T12:04:28;9.30;92.10
42037;DHT22;30340;52.004;5.908;2023-01-13T12:07:14;9.30;92.10
42037;DHT22;30340;52.004;5.908;2023-01-13T12:10:09;9.30;92.00
42037;DHT22;30340;52.004;5.908;2023-01-13T12:12:59;9.30;92.00
42037;DHT22;30340;52.004;5.908;2023-01-13T12:15:35;9.40;92.00
42037;DHT22;30340;52.004;5.908;2023-01-13T12:18:38;9.40;91.90
42037;DHT22;30340;52.004;5.908;2023-01-13T12:21:21;9.30;91.90
42037;DHT22;30340;52.004;5.908;2023-01-13T12:26:36;9.30;92.00
42037;DHT22;30340;52.004;5.908;2023-01-13T12:29:17;9.40;92.10
42037;DHT22;30340;52.004;5.908;2023-01-13T12:31:47;9.40;92.10
42037;DHT22;30340;52.004;5.908;2023-01-13T12:34:37;9.40;92.10
42037;DHT22;30340;52.004;5.908;2023-01-13T12:37:24;9.40;92.20
42037;DHT22;30340;52.004;5.908;2023-01-13T12:43:19;9.30;92.20
42037;DHT22;30340;52.004;5.908;2023-01-13T12:51:29;9.20;92.30
42037;DHT22;30340;52.004;5.908;2023-01-13T12:54:02;9.20;92.40
42037;DHT22;30340;52.004;5.908;2023-01-13T12:56:39;9.20;92.40
42037;DHT22;30340;52.004;5.908;2023-01-13T13:01:43;9.10;92.90
42037;DHT22;30340;52.004;5.908;2023-01-13T13:04:11;9.20;92.60
42037;DHT22;30340;52.004;5.908;2023-01-13T13:06:42;9.20;92.60
42037;DHT22;30340;52.004;5.908;2023-01-13T13:09:32;9.30;92.60
42037;DHT22;30340;52.004;5.908;2023-01-13T13:15:29;9.30;92.50
42037;DHT22;30340;52.004;5.908;2023-01-13T13:20:59;9.30;92.40
42037;DHT22;30340;52.004;5.908;2023-01-13T13:23:37;9.40;92.40
42037;DHT22;30340;52.004;5.908;2023-01-13T13:26:21;9.40;92.30
42037;DHT22;30340;52.004;5.908;2023-01-13T13:40:24;9.50;92.00
42037;DHT22;30340;52.004;5.908;2023-01-13T13:43:12;9.50;91.80
42037;DHT22;30340;52.004;5.908;2023-01-13T13:45:56;9.50;91.70
42037;DHT22;30340;52.004;5.908;2023-01-13T13:48:50;9.50;91.50
42037;DHT22;30340;52.004;5.908;2023-01-13T13:51:26;9.60;91.50
42037;DHT22;30340;52.004;5.908;2023-01-13T13:53:55;9.60;91.40
42037;DHT22;30340;52.004;5.908;2023-01-13T13:56:25;9.60;91.30
42037;DHT22;30340;52.004;5.908;2023-01-13T13:58:52;9.70;91.10
42037;DHT22;30340;52.004;5.908;2023-01-13T14:01:24;9.70;90.80
42037;DHT22;30340;52.004;5.908;2023-01-13T14:04:08;9.70;90.50
42037;DHT22;30340;52.004;5.908;2023-01-13T14:06:35;9.70;90.30
42037;DHT22;30340;52.004;5.908;2023-01-13T14:09:02;9.70;90.40
42037;DHT22;30340;52.004;5.908;2023-01-13T14:11:30;9.80;90.30
42037;DHT22;30340;52.004;5.908;2023-01-13T14:14:12;9.80;90.00
42037;DHT22;30340;52.004;5.908;2023-01-13T14:16:40;9.80;89.80
42037;DHT22;30340;52.004;5.908;2023-01-13T14:19:16;9.90;90.00
42037;DHT22;30340;52.004;5.908;2023-01-13T14:21:47;9.90;90.20
42037;DHT22;30340;52.004;5.908;2023-01-13T14:24:15;9.90;89.80
42037;DHT22;30340;52.004;5.908;2023-01-13T14:26:42;9.90;89.90
42037;DHT22;30340;52.004;5.908;2023-01-13T14:29:15;9.90;89.60
42037;DHT22;30340;52.004;5.908;2023-01-13T14:31:42;9.90;89.80
42037;DHT22;30340;52.004;5.908;2023-01-13T14:34:10;9.90;90.00
42037;DHT22;30340;52.004;5.908;2023-01-13T14:36:37;9.90;89.70
42037;DHT22;30340;52.004;5.908;2023-01-13T14:41:43;9.90;89.50
42037;DHT22;30340;52.004;5.908;2023-01-13T14:44:29;9.90;89.60
42037;DHT22;30340;52.004;5.908;2023-01-13T14:46:58;9.90;89.50
42037;DHT22;30340;52.004;5.908;2023-01-13T14:49:34;9.90;89.60
42037;DHT22;30340;52.004;5.908;2023-01-13T14:52:14;9.90;89.30
42037;DHT22;30340;52.004;5.908;2023-01-13T14:57:13;9.80;89.40
42037;DHT22;30340;52.004;5.908;2023-01-13T14:59:40;9.90;89.10
42037;DHT22;30340;52.004;5.908;2023-01-13T15:04:50;9.80;89.10
42037;DHT22;30340;52.004;5.908;2023-01-13T15:07:25;9.90;89.20
42037;DHT22;30340;52.004;5.908;2023-01-13T15:09:58;9.90;90.00
42037;DHT22;30340;52.004;5.908;2023-01-13T15:14:53;9.90;89.00
42037;DHT22;30340;52.004;5.908;2023-01-13T15:17:18;9.90;89.10
42037;DHT22;30340;52.004;5.908;2023-01-13T15:19:44;9.90;88.90
42037;DHT22;30340;52.004;5.908;2023-01-13T15:22:10;9.90;88.60
42037;DHT22;30340;52.004;5.908;2023-01-13T15:24:36;9.90;88.10
42037;DHT22;30340;52.004;5.908;2023-01-13T15:27:03;9.90;88.30
42037;DHT22;30340;52.004;5.908;2023-01-13T15:29:36;9.90;88.60
42037;DHT22;30340;52.004;5.908;2023-01-13T15:32:02;9.90;88.30
42037;DHT22;30340;52.004;5.908;2023-01-13T15:34:27;9.90;88.10
42037;DHT22;30340;52.004;5.908;2023-01-13T15:36:53;9.90;88.20
42037;DHT22;30340;52.004;5.908;2023-01-13T15:39:18;9.90;88.00
42037;DHT22;30340;52.004;5.908;2023-01-13T15:41:44;9.90;87.80
42037;DHT22;30340;52.004;5.908;2023-01-13T15:44:28;9.90;87.80
42037;DHT22;30340;52.004;5.908;2023-01-13T15:47:12;9.90;87.80
42037;DHT22;30340;52.004;5.908;2023-01-13T15:49:44;9.90;88.40
42037;DHT22;30340;52.004;5.908;2023-01-13T15:52:22;9.90;87.80
42037;DHT22;30340;52.004;5.908;2023-01-13T15:54:49;9.90;87.50
42037;DHT22;30340;52.004;5.908;2023-01-13T15:57:26;9.90;87.10
42037;DHT22;30340;52.004;5.908;2023-01-13T15:59:54;9.90;87.40
42037;DHT22;30340;52.004;5.908;2023-01-13T16:02:21;9.90;87.30
42037;DHT22;30340;52.004;5.908;2023-01-13T16:04:48;9.80;87.00
42037;DHT22;30340;52.004;5.908;2023-01-13T16:07:17;9.80;87.40
42037;DHT22;30340;52.004;5.908;2023-01-13T16:09:44;9.80;87.70
42037;DHT22;30340;52.004;5.908;2023-01-13T16:12:10;9.80;87.20
42037;DHT22;30340;52.004;5.908;2023-01-13T16:14:36;9.80;86.90
42037;DHT22;30340;52.004;5.908;2023-01-13T16:17:09;9.80;87.00
42037;DHT22;30340;52.004;5.908;2023-01-13T16:19:35;9.80;87.10
42037;DHT22;30340;52.004;5.908;2023-01-13T16:22:00;9.80;87.20
42037;DHT22;30340;52.004;5.908;2023-01-13T16:24:26;9.80;87.00
42037;DHT22;30340;52.004;5.908;2023-01-13T16:26:51;9.70;86.90
42037;DHT22;30340;52.004;5.908;2023-01-13T16:29:17;9.70;87.10
42037;DHT22;30340;52.004;5.908;2023-01-13T16:31:42;9.70;86.90
42037;DHT22;30340;52.004;5.908;2023-01-13T16:34:08;9.70;87.10
42037;DHT22;30340;52.004;5.908;2023-01-13T16:36:34;9.70;88.00
42037;DHT22;30340;52.004;5.908;2023-01-13T16:39:02;9.70;88.20
42037;DHT22;30340;52.004;5.908;2023-01-13T16:41:28;9.70;87.60
42037;DHT22;30340;52.004;5.908;2023-01-13T16:43:54;9.70;87.60
42037;DHT22;30340;52.004;5.908;2023-01-13T16:46:27;9.80;87.70
42037;DHT22;30340;52.004;5.908;2023-01-13T16:48:56;9.70;87.50
42037;DHT22;30340;52.004;5.908;2023-01-13T16:51:23;9.70;87.50
42037;DHT22;30340;52.004;5.908;2023-01-13T16:53:49;9.70;87.50
42037;DHT22;30340;52.004;5.908;2023-01-13T16:56:26;9.70;87.50
42037;DHT22;30340;52.004;5.908;2023-01-13T16:58:55;9.70;87.40
42037;DHT22;30340;52.004;5.908;2023-01-13T17:01:26;9.70;87.10
42037;DHT22;30340;52.004;5.908;2023-01-13T17:03:53;9.60;87.10
42037;DHT22;30340;52.004;5.908;2023-01-13T17:06:26;9.70;87.30
42037;DHT22;30340;52.004;5.908;2023-01-13T17:08:53;9.70;87.30
42037;DHT22;30340;52.004;5.908;2023-01-13T17:11:19;9.70;87.40
42037;DHT22;30340;52.004;5.908;2023-01-13T17:13:45;9.70;87.60
42037;DHT22;30340;52.004;5.908;2023-01-13T17:16:16;9.60;87.40
42037;DHT22;30340;52.004;5.908;2023-01-13T17:18:42;9.70;87.30
42037;DHT22;30340;52.004;5.908;2023-01-13T17:21:08;9.70;87.40
42037;DHT22;30340;52.004;5.908;2023-01-13T17:23:33;9.70;87.50
42037;DHT22;30340;52.004;5.908;2023-01-13T17:25:59;9.70;87.50
42037;DHT22;30340;52.004;5.908;2023-01-13T17:28:24;9.70;87.50
42037;DHT22;30340;52.004;5.908;2023-01-13T17:30:50;9.70;87.40
42037;DHT22;30340;52.004;5.908;2023-01-13T17:33:16;9.70;87.40
42037;DHT22;30340;52.004;5.908;2023-01-13T17:35:41;9.70;87.40
42037;DHT22;30340;52.004;5.908;2023-01-13T17:38:07;9.60;87.50
42037;DHT22;30340;52.004;5.908;2023-01-13T17:40:33;9.60;88.00
42037;DHT22;30340;52.004;5.908;2023-01-13T17:42:58;9.60;88.40
42037;DHT22;30340;52.004;5.908;2023-01-13T17:45:24;9.50;88.90
42037;DHT22;30340;52.004;5.908;2023-01-13T17:47:49;9.40;89.20
42037;DHT22;30340;52.004;5.908;2023-01-13T17:50:16;9.20;89.50
42037;DHT22;30340;52.004;5.908;2023-01-13T17:52:41;9.00;89.70
42037;DHT22;30340;52.004;5.908;2023-01-13T17:55:07;8.90;90.10
42037;DHT22;30340;52.004;5.908;2023-01-13T17:57:34;8.80;90.20
42037;DHT22;30340;52.004;5.908;2023-01-13T17:59:59;8.70;90.50